Time;durP1;ratioP1;P1;durP2;ratioP2;P2;SDS_P1;SDS_P2;PMS_P1;PMS_P2;Temp;Humidity;BMP_temperature;BMP_pressure;BME280_temperature;BME280_humidity;BME280_pressure;Samples;Min_cycle;Max_cycle;Signal;HPM_P1;HPM_P2
2022/02/23 00:00:10;;;;;;;6.68;1.30;;;;;;;;;;5035477;28;20045;-83
2022/02/23 00:02:35;;;;;;;6.57;1.40;;;;;;;;;;5015200;28;20040;-83
2022/02/23 00:05:01;;;;;;;5.53;1.30;;;;;;;;;;5022061;28;20041;-83
2022/02/23 00:07:27;;;;;;;10.25;2.25;;;;;;;;;;5019777;28;20041;-83
2022/02/23 00:09:53;;;;;;;6.20;1.80;;;;;;;;;;5036306;28;20037;-83
2022/02/23 00:12:19;;;;;;;9.80;1.80;;;;;;;;;;5019566;28;20082;-84
2022/02/23 00:14:44;;;;;;;7.38;1.45;;;;;;;;;;5034387;28;20349;-83
2022/02/23 00:17:10;;;;;;;12.50;1.80;;;;;;;;;;5035875;28;20041;-83
2022/02/23 00:19:36;;;;;;;10.25;2.63;;;;;;;;;;5019917;28;20033;-83
2022/02/23 00:22:02;;;;;;;13.48;2.25;;;;;;;;;;5022930;28;20045;-83
2022/02/23 00:24:28;;;;;;;11.98;2.33;;;;;;;;;;5019535;28;20096;-83
2022/02/23 00:26:53;;;;;;;10.85;2.00;;;;;;;;;;5021348;28;20037;-83
2022/02/23 00:29:19;;;;;;;11.90;1.75;;;;;;;;;;5014951;28;20045;-83
2022/02/23 00:31:46;;;;;;;12.43;2.30;;;;;;;;;;5036079;28;20572;-83
2022/02/23 00:34:12;;;;;;;14.82;2.28;;;;;;;;;;5026346;28;20096;-83
2022/02/23 00:36:38;;;;;;;11.82;2.38;;;;;;;;;;5017606;28;20086;-83
2022/02/23 00:39:04;;;;;;;16.33;2.90;;;;;;;;;;5018395;28;20615;-83
2022/02/23 00:41:30;;;;;;;18.35;2.72;;;;;;;;;;5032911;28;20485;-83
2022/02/23 00:43:57;;;;;;;12.85;2.03;;;;;;;;;;5017130;28;20100;-83
2022/02/23 00:46:23;;;;;;;13.85;2.45;;;;;;;;;;5034362;28;20037;-83
2022/02/23 00:48:48;;;;;;;18.08;2.72;;;;;;;;;;5019182;28;20048;-83
2022/02/23 00:51:14;;;;;;;14.30;3.20;;;;;;;;;;5031427;28;20068;-83
2022/02/23 00:53:40;;;;;;;18.83;3.15;;;;;;;;;;5016153;28;20044;-83
2022/02/23 00:56:05;;;;;;;14.40;3.45;;;;;;;;;;5019865;28;20488;-82
2022/02/23 00:58:31;;;;;;;15.73;3.17;;;;;;;;;;5049965;28;20057;-83
2022/02/23 01:00:57;;;;;;;14.10;2.70;;;;;;;;;;5014968;28;20072;-83
2022/02/23 01:03:23;;;;;;;10.88;3.47;;;;;;;;;;5031377;28;20040;-82
2022/02/23 01:05:48;;;;;;;17.00;3.25;;;;;;;;;;5033404;28;20037;-83
2022/02/23 01:08:14;;;;;;;21.50;3.10;;;;;;;;;;5034846;28;20043;-82
2022/02/23 01:10:40;;;;;;;23.60;3.38;;;;;;;;;;5017929;28;20037;-83
2022/02/23 01:13:05;;;;;;;19.85;2.80;;;;;;;;;;5020706;28;20057;-82
2022/02/23 01:15:31;;;;;;;22.40;3.20;;;;;;;;;;5017114;28;20090;-83
2022/02/23 01:17:57;;;;;;;15.05;2.95;;;;;;;;;;5016357;28;20045;-82
2022/02/23 01:20:24;;;;;;;19.75;3.67;;;;;;;;;;5035226;28;20033;-83
2022/02/23 01:22:52;;;;;;;23.77;3.63;;;;;;;;;;5033732;28;20779;-82
2022/02/23 01:25:17;;;;;;;21.58;3.40;;;;;;;;;;5010587;28;20036;-82
2022/02/23 01:27:43;;;;;;;20.85;4.10;;;;;;;;;;5032849;28;20079;-83
2022/02/23 01:30:09;;;;;;;17.60;3.70;;;;;;;;;;5016711;28;20068;-82
2022/02/23 01:32:35;;;;;;;18.83;4.05;;;;;;;;;;5018003;28;20043;-83
2022/02/23 01:35:00;;;;;;;18.67;3.80;;;;;;;;;;5016068;28;20044;-83
2022/02/23 01:37:26;;;;;;;20.83;3.95;;;;;;;;;;5015864;28;20578;-83
2022/02/23 01:39:52;;;;;;;20.23;3.45;;;;;;;;;;5019045;28;20041;-82
2022/02/23 01:42:18;;;;;;;19.83;3.00;;;;;;;;;;5015926;28;20049;-83
2022/02/23 01:44:43;;;;;;;22.92;4.15;;;;;;;;;;5020555;28;20564;-83
2022/02/23 01:47:09;;;;;;;19.52;3.65;;;;;;;;;;5020135;28;20420;-83
2022/02/23 01:49:35;;;;;;;21.80;3.75;;;;;;;;;;5033094;28;20040;-83
2022/02/23 01:52:01;;;;;;;20.90;3.55;;;;;;;;;;5014022;28;20098;-82
2022/02/23 01:54:27;;;;;;;17.02;3.47;;;;;;;;;;5032921;28;20041;-83
2022/02/23 01:56:53;;;;;;;15.82;3.67;;;;;;;;;;5022256;28;20110;-83
2022/02/23 01:59:18;;;;;;;16.70;3.22;;;;;;;;;;5036109;28;20090;-83
2022/02/23 02:01:45;;;;;;;21.05;3.72;;;;;;;;;;5036122;28;20064;-83
2022/02/23 02:04:10;;;;;;;14.90;3.25;;;;;;;;;;5035515;28;20087;-82
2022/02/23 02:06:36;;;;;;;19.33;3.15;;;;;;;;;;5037524;28;20040;-83
2022/02/23 02:09:02;;;;;;;15.07;3.80;;;;;;;;;;5053169;28;20060;-82
2022/02/23 02:11:28;;;;;;;19.45;3.75;;;;;;;;;;5018175;28;20047;-83
2022/02/23 02:13:54;;;;;;;15.57;2.83;;;;;;;;;;5036899;28;20033;-83
2022/02/23 02:16:19;;;;;;;22.00;4.65;;;;;;;;;;5021351;28;20383;-83
2022/02/23 02:18:45;;;;;;;16.25;3.10;;;;;;;;;;5019271;28;20476;-82
2022/02/23 02:21:11;;;;;;;16.35;3.67;;;;;;;;;;5035042;28;20072;-82
2022/02/23 02:23:36;;;;;;;16.80;3.13;;;;;;;;;;5024064;28;20387;-82
2022/02/23 02:26:03;;;;;;;17.15;3.08;;;;;;;;;;5018919;28;20453;-82
2022/02/23 02:28:28;;;;;;;22.42;3.40;;;;;;;;;;5051439;28;20036;-83
2022/02/23 02:30:54;;;;;;;22.10;5.20;;;;;;;;;;5036715;28;20540;-83
2022/02/23 02:33:20;;;;;;;12.10;2.88;;;;;;;;;;5037026;28;20140;-82
2022/02/23 02:35:46;;;;;;;18.90;3.65;;;;;;;;;;5019464;28;20101;-83
2022/02/23 02:38:12;;;;;;;12.52;2.88;;;;;;;;;;5019649;28;20037;-83
2022/02/23 02:40:38;;;;;;;19.90;3.25;;;;;;;;;;5033339;28;20142;-82
2022/02/23 02:43:07;;;;;;;17.85;3.50;;;;;;;;;;5035405;28;20557;-82
2022/02/23 02:45:33;;;;;;;15.80;3.33;;;;;;;;;;5020769;28;20053;-82
2022/02/23 02:47:59;;;;;;;20.33;4.00;;;;;;;;;;5018546;28;20098;-82
2022/02/23 02:50:25;;;;;;;18.65;3.20;;;;;;;;;;5019583;28;20041;-82
2022/02/23 02:52:50;;;;;;;20.67;4.05;;;;;;;;;;5026611;28;20068;-82
2022/02/23 02:55:16;;;;;;;21.55;2.97;;;;;;;;;;5036899;28;20064;-82
2022/02/23 02:57:42;;;;;;;18.95;3.05;;;;;;;;;;5022547;28;20069;-83
2022/02/23 03:00:10;;;;;;;17.30;4.00;;;;;;;;;;5037028;28;20171;-83
2022/02/23 03:02:35;;;;;;;14.75;2.92;;;;;;;;;;5036578;28;20049;-83
2022/02/23 03:05:01;;;;;;;20.73;3.03;;;;;;;;;;5035717;28;20357;-83
2022/02/23 03:07:27;;;;;;;21.45;3.30;;;;;;;;;;5019280;28;20144;-82
2022/02/23 03:09:53;;;;;;;14.88;2.72;;;;;;;;;;5023016;28;20102;-82
2022/02/23 03:12:19;;;;;;;15.65;2.53;;;;;;;;;;5020411;28;20048;-83
2022/02/23 03:14:45;;;;;;;14.48;3.47;;;;;;;;;;5019944;28;20043;-82
2022/02/23 03:17:11;;;;;;;16.65;3.20;;;;;;;;;;5018599;28;20082;-82
2022/02/23 03:19:37;;;;;;;25.35;3.47;;;;;;;;;;5021242;28;20104;-82
2022/02/23 03:22:03;;;;;;;23.52;3.55;;;;;;;;;;5019111;28;20045;-83
2022/02/23 03:24:28;;;;;;;17.15;3.22;;;;;;;;;;5033123;28;20091;-83
2022/02/23 03:26:54;;;;;;;16.17;2.95;;;;;;;;;;5016963;28;20425;-83
2022/02/23 03:29:20;;;;;;;22.55;3.33;;;;;;;;;;5033401;28;20530;-83
2022/02/23 03:31:45;;;;;;;21.30;3.40;;;;;;;;;;5017425;28;20072;-83
2022/02/23 03:34:11;;;;;;;15.20;2.88;;;;;;;;;;5033710;28;20048;-83
2022/02/23 03:36:37;;;;;;;23.95;3.58;;;;;;;;;;5033288;28;20041;-84
2022/02/23 03:39:04;;;;;;;16.20;3.40;;;;;;;;;;5018003;28;20504;-83
2022/02/23 03:41:29;;;;;;;15.77;2.85;;;;;;;;;;5016560;28;20035;-85
2022/02/23 03:43:55;;;;;;;17.65;3.30;;;;;;;;;;5032756;28;20413;-82
2022/02/23 03:46:21;;;;;;;12.50;2.85;;;;;;;;;;5032812;28;20140;-82
2022/02/23 03:48:47;;;;;;;24.33;3.88;;;;;;;;;;5033442;28;20041;-83
2022/02/23 03:51:13;;;;;;;19.55;3.00;;;;;;;;;;5017629;28;20061;-83
2022/02/23 03:53:39;;;;;;;16.65;3.30;;;;;;;;;;5032000;28;20039;-82
2022/02/23 03:56:38;;;;;;;15.32;2.58;;;;;;;;;;5012231;28;20045;-82
2022/02/23 03:58:51;;;;;;;16.85;3.15;;;;;;;;;;5032650;28;20560;-82
2022/02/23 04:01:16;;;;;;;18.27;4.20;;;;;;;;;;5028801;28;20051;-82
2022/02/23 04:03:42;;;;;;;19.33;3.15;;;;;;;;;;5013788;28;20072;-82
2022/02/23 04:06:08;;;;;;;17.05;3.15;;;;;;;;;;5012733;28;20476;-82
2022/02/23 04:08:33;;;;;;;24.48;3.85;;;;;;;;;;5028843;28;20098;-83
2022/02/23 04:10:59;;;;;;;16.17;3.22;;;;;;;;;;5016531;28;20045;-82
2022/02/23 04:13:25;;;;;;;17.85;3.25;;;;;;;;;;5026986;28;20507;-82
2022/02/23 04:15:50;;;;;;;24.77;4.70;;;;;;;;;;5011743;28;20049;-82
2022/02/23 04:18:16;;;;;;;18.42;3.55;;;;;;;;;;5027204;28;20064;-83
2022/02/23 04:20:42;;;;;;;21.20;3.80;;;;;;;;;;5029349;28;20045;-83
2022/02/23 04:23:07;;;;;;;20.92;3.90;;;;;;;;;;5012369;28;20037;-83
2022/02/23 04:25:33;;;;;;;20.63;4.32;;;;;;;;;;5028112;28;20067;-83
2022/02/23 04:27:59;;;;;;;22.90;3.25;;;;;;;;;;5028301;28;20543;-83
2022/02/23 04:30:25;;;;;;;22.00;4.43;;;;;;;;;;5012337;28;20041;-83
2022/02/23 04:32:50;;;;;;;20.75;3.55;;;;;;;;;;5011003;28;20041;-83
2022/02/23 04:35:16;;;;;;;21.73;3.95;;;;;;;;;;5028111;28;20064;-83
2022/02/23 04:37:42;;;;;;;17.48;3.60;;;;;;;;;;5011947;28;20045;-83
2022/02/23 04:40:09;;;;;;;22.75;3.40;;;;;;;;;;5045400;28;20611;-82
2022/02/23 04:42:36;;;;;;;20.27;3.63;;;;;;;;;;5010723;28;20052;-83
2022/02/23 04:45:02;;;;;;;17.83;3.13;;;;;;;;;;5028221;28;20611;-83
2022/02/23 04:47:29;;;;;;;21.35;3.10;;;;;;;;;;5011518;28;20067;-83
2022/02/23 04:49:55;;;;;;;18.55;4.05;;;;;;;;;;5027068;28;20045;-83
2022/02/23 04:52:21;;;;;;;16.95;2.75;;;;;;;;;;5012225;28;20183;-83
2022/02/23 04:54:46;;;;;;;20.02;3.50;;;;;;;;;;5010765;28;20037;-83
2022/02/23 04:57:14;;;;;;;16.83;3.00;;;;;;;;;;5010494;28;20102;-83
2022/02/23 04:59:39;;;;;;;17.48;3.10;;;;;;;;;;5027360;28;20122;-83
2022/02/23 05:02:09;;;;;;;16.65;3.72;;;;;;;;;;5027765;28;20099;-83
2022/02/23 05:04:35;;;;;;;23.73;4.10;;;;;;;;;;5013818;28;20037;-83
2022/02/23 05:07:00;;;;;;;27.98;4.03;;;;;;;;;;5028847;28;20103;-83
2022/02/23 05:09:26;;;;;;;22.05;3.72;;;;;;;;;;5027574;28;20456;-83
2022/02/23 05:11:52;;;;;;;19.25;4.75;;;;;;;;;;5027454;28;20039;-83
2022/02/23 05:14:18;;;;;;;21.10;3.83;;;;;;;;;;5010744;28;20110;-83
2022/02/23 05:16:44;;;;;;;18.17;3.72;;;;;;;;;;5027155;28;20059;-83
2022/02/23 05:19:10;;;;;;;14.60;2.92;;;;;;;;;;5013019;28;20049;-83
2022/02/23 05:21:35;;;;;;;17.48;5.28;;;;;;;;;;5027842;28;20045;-83
2022/02/23 05:24:01;;;;;;;18.60;3.13;;;;;;;;;;5011471;28;20041;-83
2022/02/23 05:26:27;;;;;;;20.73;3.40;;;;;;;;;;5029174;28;20041;-83
2022/02/23 05:28:52;;;;;;;19.23;4.05;;;;;;;;;;5028043;28;20033;-83
2022/02/23 05:31:18;;;;;;;18.25;3.67;;;;;;;;;;5012030;28;20041;-83
2022/02/23 05:33:44;;;;;;;17.08;3.50;;;;;;;;;;5027351;28;20075;-83
2022/02/23 05:36:09;;;;;;;22.17;4.57;;;;;;;;;;5043267;28;20041;-83
2022/02/23 05:38:35;;;;;;;24.02;4.38;;;;;;;;;;5026816;28;20379;-83
2022/02/23 05:41:03;;;;;;;21.52;4.40;;;;;;;;;;5027131;28;20099;-83
2022/02/23 05:43:31;;;;;;;24.95;4.38;;;;;;;;;;5014693;28;20517;-83
2022/02/23 05:45:57;;;;;;;18.85;4.57;;;;;;;;;;5026347;28;20041;-83
2022/02/23 05:48:22;;;;;;;20.67;3.10;;;;;;;;;;5043312;28;20037;-83
2022/02/23 05:50:48;;;;;;;14.48;2.70;;;;;;;;;;5046154;28;20094;-84
2022/02/23 05:53:14;;;;;;;13.95;2.83;;;;;;;;;;5028350;28;20065;-84
2022/02/23 05:55:40;;;;;;;20.80;3.33;;;;;;;;;;5029415;28;20037;-84
2022/02/23 05:58:05;;;;;;;16.85;2.92;;;;;;;;;;5011738;28;20041;-84
2022/02/23 06:00:31;;;;;;;18.35;3.28;;;;;;;;;;5029060;28;20678;-84
2022/02/23 06:02:57;;;;;;;17.13;3.20;;;;;;;;;;5029974;28;20474;-84
2022/02/23 06:05:22;;;;;;;17.55;2.97;;;;;;;;;;5029402;28;20033;-84
2022/02/23 06:07:48;;;;;;;20.50;3.33;;;;;;;;;;5013477;28;20033;-84
2022/02/23 06:10:14;;;;;;;19.20;4.32;;;;;;;;;;5013338;28;20114;-84
2022/02/23 06:12:40;;;;;;;16.42;3.90;;;;;;;;;;5045781;28;20469;-84
2022/02/23 06:15:06;;;;;;;22.40;3.95;;;;;;;;;;5028734;28;20041;-84
2022/02/23 06:17:32;;;;;;;22.17;4.00;;;;;;;;;;5028904;28;20041;-84
2022/02/23 06:19:58;;;;;;;16.65;3.70;;;;;;;;;;5014960;28;20101;-84
2022/02/23 06:22:24;;;;;;;21.02;3.67;;;;;;;;;;5013611;28;20440;-84
2022/02/23 06:24:50;;;;;;;23.00;3.60;;;;;;;;;;5018362;28;20053;-84
2022/02/23 06:27:17;;;;;;;21.25;3.22;;;;;;;;;;5014347;28;20045;-85
2022/02/23 06:29:43;;;;;;;21.00;3.33;;;;;;;;;;5029458;28;20170;-84
2022/02/23 06:32:09;;;;;;;21.67;3.70;;;;;;;;;;5016682;28;20041;-84
2022/02/23 06:34:36;;;;;;;16.85;3.42;;;;;;;;;;5014171;28;20052;-84
2022/02/23 06:37:04;;;;;;;16.55;3.20;;;;;;;;;;5014271;28;20101;-84
2022/02/23 06:39:41;;;;;;;22.02;4.15;;;;;;;;;;5016676;28;20402;-84
2022/02/23 06:42:07;;;;;;;18.13;3.50;;;;;;;;;;5031031;28;20041;-84
2022/02/23 06:44:33;;;;;;;14.93;3.83;;;;;;;;;;5016550;28;20052;-84
2022/02/23 06:47:00;;;;;;;14.70;2.65;;;;;;;;;;5032428;28;20126;-84
2022/02/23 06:49:27;;;;;;;17.80;4.32;;;;;;;;;;5032770;28;20029;-84
2022/02/23 06:51:58;;;;;;;14.68;3.10;;;;;;;;;;5018004;28;20041;-84
2022/02/23 06:54:25;;;;;;;14.40;3.30;;;;;;;;;;5017820;28;20207;-84
2022/02/23 06:56:51;;;;;;;19.67;2.83;;;;;;;;;;5021895;28;20033;-84
2022/02/23 06:59:17;;;;;;;16.30;2.80;;;;;;;;;;5050631;28;20044;-84
2022/02/23 07:01:42;;;;;;;11.40;3.05;;;;;;;;;;5032255;28;20048;-85
2022/02/23 07:04:08;;;;;;;13.95;2.80;;;;;;;;;;5033030;28;20041;-84
2022/02/23 07:06:34;;;;;;;18.05;3.00;;;;;;;;;;5016598;28;20064;-85
2022/02/23 07:09:00;;;;;;;20.25;2.83;;;;;;;;;;5032756;28;20509;-84
2022/02/23 07:11:27;;;;;;;20.73;3.63;;;;;;;;;;5015995;28;20041;-84
2022/02/23 07:13:54;;;;;;;14.73;3.72;;;;;;;;;;5022066;28;20048;-84
2022/02/23 07:16:23;;;;;;;22.88;3.83;;;;;;;;;;5016708;28;20564;-84
2022/02/23 07:18:50;;;;;;;13.68;2.80;;;;;;;;;;5017307;28;20041;-84
2022/02/23 07:21:16;;;;;;;17.17;3.70;;;;;;;;;;5031520;28;20383;-84
2022/02/23 07:23:41;;;;;;;21.63;3.97;;;;;;;;;;5018461;28;20148;-84
2022/02/23 07:26:10;;;;;;;18.60;4.63;;;;;;;;;;5016199;28;20140;-84
2022/02/23 07:28:36;;;;;;;19.08;3.67;;;;;;;;;;5032912;28;20044;-83
2022/02/23 07:31:03;;;;;;;17.60;3.20;;;;;;;;;;5007188;28;20049;-83
2022/02/23 07:33:29;;;;;;;16.35;3.03;;;;;;;;;;5025550;28;20044;-84
2022/02/23 07:35:55;;;;;;;18.10;3.47;;;;;;;;;;5012400;28;20119;-83
2022/02/23 07:38:21;;;;;;;20.55;3.10;;;;;;;;;;5015006;28;20033;-83
2022/02/23 07:40:47;;;;;;;17.45;3.72;;;;;;;;;;5031225;28;20155;-83
2022/02/23 07:43:12;;;;;;;13.27;3.00;;;;;;;;;;5014963;28;20557;-83
2022/02/23 07:45:40;;;;;;;17.75;3.17;;;;;;;;;;5044528;28;20041;-83
2022/02/23 07:48:06;;;;;;;19.23;3.28;;;;;;;;;;5031448;28;20067;-83
2022/02/23 07:50:32;;;;;;;20.60;3.60;;;;;;;;;;5012402;28;20068;-83
2022/02/23 07:52:58;;;;;;;21.48;3.67;;;;;;;;;;5028501;28;20052;-83
2022/02/23 07:55:25;;;;;;;14.20;3.17;;;;;;;;;;5013927;28;20033;-83
2022/02/23 07:57:51;;;;;;;15.43;2.97;;;;;;;;;;5015663;28;20065;-84
2022/02/23 08:00:20;;;;;;;18.38;3.33;;;;;;;;;;5031999;28;20089;-83
2022/02/23 08:02:45;;;;;;;21.33;3.33;;;;;;;;;;5033777;28;20049;-82
2022/02/23 08:05:11;;;;;;;20.60;3.35;;;;;;;;;;5016922;28;20072;-82
2022/02/23 08:07:37;;;;;;;20.73;3.53;;;;;;;;;;5029957;28;20107;-83
2022/02/23 08:10:05;;;;;;;17.25;2.63;;;;;;;;;;5029099;28;20053;-83
2022/02/23 08:12:30;;;;;;;16.73;3.15;;;;;;;;;;5011801;28;20037;-83
2022/02/23 08:14:57;;;;;;;20.95;3.55;;;;;;;;;;5014095;28;20096;-83
2022/02/23 08:20:08;;;;;;;17.63;3.25;;;;;;;;;;5032881;28;20521;-83
2022/02/23 08:22:35;;;;;;;12.30;2.65;;;;;;;;;;5010313;28;20037;-83
2022/02/23 08:25:01;;;;;;;19.13;3.25;;;;;;;;;;5013387;28;20048;-83
2022/02/23 08:27:28;;;;;;;14.57;3.15;;;;;;;;;;5013168;28;20466;-83
2022/02/23 08:29:54;;;;;;;16.02;3.15;;;;;;;;;;5015042;28;20040;-83
2022/02/23 08:32:23;;;;;;;11.75;3.28;;;;;;;;;;5026802;28;20041;-83
2022/02/23 08:34:51;;;;;;;14.27;2.60;;;;;;;;;;5005726;28;20118;-82
2022/02/23 08:37:17;;;;;;;17.10;3.33;;;;;;;;;;5010726;28;20041;-82
2022/02/23 08:39:44;;;;;;;15.85;3.50;;;;;;;;;;5027702;28;20371;-82
2022/02/23 08:42:12;;;;;;;12.50;3.00;;;;;;;;;;5013259;28;20055;-81
2022/02/23 08:44:38;;;;;;;19.48;3.00;;;;;;;;;;5012901;28;20047;-81
2022/02/23 08:47:07;;;;;;;17.63;3.05;;;;;;;;;;5009809;28;20076;-81
2022/02/23 08:49:34;;;;;;;11.07;2.42;;;;;;;;;;5028540;28;20037;-84
2022/02/23 08:51:59;;;;;;;17.02;3.95;;;;;;;;;;5015169;28;20041;-84
2022/02/23 08:54:25;;;;;;;16.65;3.03;;;;;;;;;;5021807;28;20047;-85
2022/02/23 08:56:51;;;;;;;13.68;2.80;;;;;;;;;;5033973;28;20063;-86
2022/02/23 08:59:17;;;;;;;13.45;2.78;;;;;;;;;;5034549;28;20128;-85
2022/02/23 09:01:44;;;;;;;13.98;3.78;;;;;;;;;;5034324;28;20101;-85
2022/02/23 09:04:09;;;;;;;14.32;3.67;;;;;;;;;;5017308;28;20398;-85
2022/02/23 09:06:37;;;;;;;17.33;3.47;;;;;;;;;;5017181;28;20063;-85
2022/02/23 09:09:04;;;;;;;15.88;2.72;;;;;;;;;;5032944;28;20109;-85
2022/02/23 09:11:31;;;;;;;14.95;3.78;;;;;;;;;;5036959;28;20120;-85
2022/02/23 09:13:57;;;;;;;16.10;3.70;;;;;;;;;;5034282;28;20063;-85
2022/02/23 09:16:23;;;;;;;14.27;2.83;;;;;;;;;;5033741;28;20196;-85
2022/02/23 09:18:48;;;;;;;11.30;2.22;;;;;;;;;;5016887;28;20033;-85
2022/02/23 09:21:14;;;;;;;10.48;2.53;;;;;;;;;;5032302;28;20127;-85
2022/02/23 09:23:40;;;;;;;12.68;2.83;;;;;;;;;;5015862;28;20041;-85
2022/02/23 09:26:07;;;;;;;18.60;2.85;;;;;;;;;;5016484;28;20049;-85
2022/02/23 09:28:34;;;;;;;8.77;2.60;;;;;;;;;;5017870;28;20047;-85
2022/02/23 09:30:59;;;;;;;10.23;2.10;;;;;;;;;;5033319;28;20044;-86
2022/02/23 09:33:25;;;;;;;10.18;3.30;;;;;;;;;;5034242;28;20405;-85
2022/02/23 09:35:51;;;;;;;13.55;2.88;;;;;;;;;;5033470;28;20094;-85
2022/02/23 09:38:18;;;;;;;10.40;2.38;;;;;;;;;;5033361;28;20498;-85
2022/02/23 09:40:52;;;;;;;12.75;2.83;;;;;;;;;;5014770;28;20064;-85
2022/02/23 09:43:18;;;;;;;13.60;3.38;;;;;;;;;;5034288;28;20051;-85
2022/02/23 09:45:49;;;;;;;11.70;2.30;;;;;;;;;;5017616;28;20490;-85
2022/02/23 09:48:15;;;;;;;12.52;2.30;;;;;;;;;;5018956;28;20056;-85
2022/02/23 09:50:41;;;;;;;18.80;3.90;;;;;;;;;;5013241;28;20040;-85
2022/02/23 09:53:07;;;;;;;17.38;2.78;;;;;;;;;;5015776;28;20044;-86
2022/02/23 09:55:33;;;;;;;11.32;2.40;;;;;;;;;;5030580;28;20612;-85
2022/02/23 09:57:59;;;;;;;11.48;2.45;;;;;;;;;;5019221;28;20044;-86
2022/02/23 10:00:25;;;;;;;12.43;2.50;;;;;;;;;;5035297;28;20310;-85
2022/02/23 10:02:53;;;;;;;13.73;2.78;;;;;;;;;;5032669;28;20039;-85
2022/02/23 10:05:19;;;;;;;12.52;2.20;;;;;;;;;;5020456;28;20057;-85
2022/02/23 10:07:45;;;;;;;11.02;1.80;;;;;;;;;;5013245;28;20152;-85
2022/02/23 10:10:28;;;;;;;13.63;2.35;;;;;;;;;;5017862;28;20236;-85
2022/02/23 10:12:54;;;;;;;13.77;3.05;;;;;;;;;;5033268;28;20144;-85
2022/02/23 10:15:20;;;;;;;15.07;2.72;;;;;;;;;;5007142;28;20045;-86
2022/02/23 10:17:48;;;;;;;14.48;2.83;;;;;;;;;;5011038;28;20095;-85
2022/02/23 10:20:28;;;;;;;10.98;2.30;;;;;;;;;;5038954;28;20079;-85
2022/02/23 10:23:06;;;;;;;8.93;2.58;;;;;;;;;;5022303;28;20055;-85
2022/02/23 10:25:41;;;;;;;15.73;2.40;;;;;;;;;;5036459;28;20497;-85
2022/02/23 10:28:09;;;;;;;9.63;4.93;;;;;;;;;;5036966;28;20211;-85
2022/02/23 10:30:35;;;;;;;15.30;3.35;;;;;;;;;;5023063;28;20033;-85
2022/02/23 10:33:28;;;;;;;11.13;2.92;;;;;;;;;;5014057;28;20116;-85
2022/02/23 10:36:05;;;;;;;17.88;3.05;;;;;;;;;;5019125;28;20034;-85
2022/02/23 10:38:37;;;;;;;12.50;3.75;;;;;;;;;;5020942;28;20521;-85
2022/02/23 10:41:05;;;;;;;15.23;4.32;;;;;;;;;;5035552;28;20041;-85
2022/02/23 10:43:36;;;;;;;10.25;3.53;;;;;;;;;;5002819;28;20092;-85
2022/02/23 10:46:04;;;;;;;8.63;2.95;;;;;;;;;;5036972;28;20041;-86
2022/02/23 10:48:32;;;;;;;13.02;3.17;;;;;;;;;;5034601;28;20040;-86
2022/02/23 10:50:58;;;;;;;10.93;2.20;;;;;;;;;;5022220;28;20383;-86
2022/02/23 10:53:28;;;;;;;9.68;2.42;;;;;;;;;;5016963;28;20094;-88
2022/02/23 10:55:55;;;;;;;7.50;2.42;;;;;;;;;;5037808;28;20049;-86
2022/02/23 10:58:21;;;;;;;8.27;2.50;;;;;;;;;;5035935;28;20044;-87
2022/02/23 11:00:51;;;;;;;9.73;2.55;;;;;;;;;;5033375;28;20057;-86
2022/02/23 11:03:20;;;;;;;8.50;2.28;;;;;;;;;;5034081;28;20373;-86
2022/02/23 11:05:47;;;;;;;13.68;2.40;;;;;;;;;;5018090;28;20029;-86
2022/02/23 11:08:14;;;;;;;8.02;2.40;;;;;;;;;;5016019;28;20406;-86
2022/02/23 11:10:47;;;;;;;12.82;2.50;;;;;;;;;;5033111;28;20060;-86
2022/02/23 11:13:17;;;;;;;12.23;2.92;;;;;;;;;;5016388;28;20041;-86
2022/02/23 11:15:44;;;;;;;9.05;3.08;;;;;;;;;;5020273;28;20040;-86
2022/02/23 11:18:13;;;;;;;10.45;2.88;;;;;;;;;;5019050;28;20045;-86
2022/02/23 11:20:40;;;;;;;16.75;3.47;;;;;;;;;;5032645;28;20465;-86
2022/02/23 11:23:06;;;;;;;9.68;2.22;;;;;;;;;;5016372;28;20049;-86
2022/02/23 11:25:35;;;;;;;11.88;2.90;;;;;;;;;;5033695;28;20037;-85
2022/02/23 11:28:07;;;;;;;8.63;3.00;;;;;;;;;;5015488;28;20037;-86
2022/02/23 11:30:33;;;;;;;15.23;4.65;;;;;;;;;;5020927;28;20029;-86
2022/02/23 11:32:59;;;;;;;10.30;2.63;;;;;;;;;;5020610;28;20140;-86
2022/02/23 11:35:42;;;;;;;9.48;2.40;;;;;;;;;;5034092;28;20170;-86
2022/02/23 11:38:09;;;;;;;9.23;3.17;;;;;;;;;;5030344;28;20044;-86
2022/02/23 11:40:49;;;;;;;8.90;2.42;;;;;;;;;;5014574;28;20087;-86
2022/02/23 11:43:25;;;;;;;9.70;2.08;;;;;;;;;;5013203;28;20134;-86
2022/02/23 11:45:59;;;;;;;8.38;2.53;;;;;;;;;;5044855;28;20095;-86
2022/02/23 11:48:25;;;;;;;7.45;2.30;;;;;;;;;;5028833;28;20458;-86
2022/02/23 11:51:01;;;;;;;8.20;2.53;;;;;;;;;;5028866;28;20643;-86
2022/02/23 11:53:40;;;;;;;7.75;2.50;;;;;;;;;;5027264;28;20047;-87
2022/02/23 11:56:13;;;;;;;7.78;2.47;;;;;;;;;;5011658;28;20406;-87
2022/02/23 11:58:46;;;;;;;8.10;2.20;;;;;;;;;;5010586;28;20041;-87
2022/02/23 12:01:12;;;;;;;13.77;2.72;;;;;;;;;;5027025;28;20045;-87
2022/02/23 12:03:37;;;;;;;7.30;2.30;;;;;;;;;;5011383;28;20658;-87
2022/02/23 12:06:09;;;;;;;10.32;2.80;;;;;;;;;;5010638;28;20053;-87
2022/02/23 12:08:47;;;;;;;11.50;2.83;;;;;;;;;;5027092;28;20045;-87
2022/02/23 12:11:40;;;;;;;10.88;2.85;;;;;;;;;;5028694;28;20052;-87
2022/02/23 12:14:05;;;;;;;8.95;2.97;;;;;;;;;;5023054;28;20110;-87
2022/02/23 12:16:38;;;;;;;17.95;5.03;;;;;;;;;;5027140;28;20061;-87
2022/02/23 12:19:06;;;;;;;9.23;3.65;;;;;;;;;;5028251;28;20413;-87
2022/02/23 12:21:36;;;;;;;8.68;2.67;;;;;;;;;;5028770;28;20258;-86
2022/02/23 12:24:03;;;;;;;9.57;2.50;;;;;;;;;;5027509;28;20048;-87
2022/02/23 12:26:29;;;;;;;8.60;2.15;;;;;;;;;;5011237;28;20039;-87
2022/02/23 12:29:00;;;;;;;10.07;2.55;;;;;;;;;;5031827;28;20045;-87
2022/02/23 12:31:30;;;;;;;8.02;2.53;;;;;;;;;;5010912;28;20033;-86
2022/02/23 12:34:10;;;;;;;9.68;2.30;;;;;;;;;;5013396;28;20037;-86
2022/02/23 12:36:50;;;;;;;9.77;2.28;;;;;;;;;;5025349;28;20316;-86
2022/02/23 12:39:24;;;;;;;9.55;2.10;;;;;;;;;;5011535;28;20049;-86
2022/02/23 12:41:56;;;;;;;10.05;2.80;;;;;;;;;;5001833;28;20056;-87
2022/02/23 12:44:24;;;;;;;11.73;2.53;;;;;;;;;;5031584;28;20041;-86
2022/02/23 12:46:54;;;;;;;10.65;2.80;;;;;;;;;;5027186;28;20033;-86
2022/02/23 12:49:21;;;;;;;10.23;2.20;;;;;;;;;;5027082;28;20518;-86
2022/02/23 12:51:48;;;;;;;11.50;3.00;;;;;;;;;;5027220;28;20349;-86
2022/02/23 12:54:16;;;;;;;8.30;2.15;;;;;;;;;;5013959;28;20053;-86
2022/02/23 12:56:47;;;;;;;6.80;1.88;;;;;;;;;;5009313;28;20112;-86
2022/02/23 12:59:20;;;;;;;10.55;2.70;;;;;;;;;;5027554;28;20114;-86
2022/02/23 13:01:52;;;;;;;12.80;2.70;;;;;;;;;;5011137;28;20045;-86
2022/02/23 13:04:20;;;;;;;10.18;2.13;;;;;;;;;;5010950;28;20131;-86
2022/02/23 13:06:48;;;;;;;8.88;2.22;;;;;;;;;;5029514;28;20476;-86
2022/02/23 13:09:22;;;;;;;10.80;2.30;;;;;;;;;;5027327;28;20033;-86
2022/02/23 13:11:50;;;;;;;7.70;1.95;;;;;;;;;;5027851;28;20042;-87
2022/02/23 13:14:20;;;;;;;10.65;2.15;;;;;;;;;;5011534;28;20672;-86
2022/02/23 13:16:47;;;;;;;8.48;2.92;;;;;;;;;;5040369;28;20403;-86
2022/02/23 13:19:15;;;;;;;9.13;2.83;;;;;;;;;;5008854;28;20063;-86
2022/02/23 13:21:56;;;;;;;9.50;2.58;;;;;;;;;;5008261;28;20091;-81
2022/02/23 13:24:34;;;;;;;7.25;2.15;;;;;;;;;;5011572;28;20037;-82
2022/02/23 13:27:04;;;;;;;8.30;1.98;;;;;;;;;;5045101;28;20509;-82
2022/02/23 13:29:30;;;;;;;10.25;3.20;;;;;;;;;;5046127;28;20079;-82
2022/02/23 13:31:58;;;;;;;8.45;2.20;;;;;;;;;;5015533;28;20057;-83
2022/02/23 13:34:54;;;;;;;7.40;2.30;;;;;;;;;;5014367;28;20510;-83
2022/02/23 13:37:25;;;;;;;7.80;2.33;;;;;;;;;;5014554;28;20045;-83
2022/02/23 13:40:08;;;;;;;9.50;2.72;;;;;;;;;;5029624;28;20043;-83
2022/02/23 13:42:35;;;;;;;9.95;2.90;;;;;;;;;;5032603;28;20684;-83
2022/02/23 13:45:21;;;;;;;10.23;2.58;;;;;;;;;;5015920;28;20041;-83
2022/02/23 13:47:52;;;;;;;9.93;3.40;;;;;;;;;;5030749;28;20033;-82
2022/02/23 13:50:24;;;;;;;7.15;2.75;;;;;;;;;;5014427;28;20037;-83
2022/02/23 13:52:53;;;;;;;8.75;3.10;;;;;;;;;;5034638;28;20438;-83
2022/02/23 13:55:30;;;;;;;6.32;2.53;;;;;;;;;;5017633;28;20044;-83
2022/02/23 13:58:02;;;;;;;8.60;2.25;;;;;;;;;;5047829;28;20041;-82
2022/02/23 14:00:33;;;;;;;8.80;2.22;;;;;;;;;;5034748;28;20041;-82
2022/02/23 14:03:19;;;;;;;10.13;2.70;;;;;;;;;;5034408;28;20055;-85
2022/02/23 14:06:04;;;;;;;10.82;3.60;;;;;;;;;;5051945;28;20059;-84
2022/02/23 14:08:33;;;;;;;11.55;3.17;;;;;;;;;;5028466;28;20037;-84
2022/02/23 14:10:59;;;;;;;10.13;2.47;;;;;;;;;;5019250;28;20546;-84
2022/02/23 14:13:35;;;;;;;9.90;3.38;;;;;;;;;;5036647;28;20029;-85
2022/02/23 14:16:11;;;;;;;16.75;7.28;;;;;;;;;;5038708;28;20321;-84
2022/02/23 14:18:48;;;;;;;10.10;2.70;;;;;;;;;;5028180;28;20048;-83
2022/02/23 14:21:14;;;;;;;6.60;2.70;;;;;;;;;;5035150;28;20084;-83
2022/02/23 14:23:42;;;;;;;7.25;2.25;;;;;;;;;;5019964;28;20041;-84
2022/02/23 14:26:11;;;;;;;11.60;2.55;;;;;;;;;;5017231;28;20045;-84
2022/02/23 14:28:40;;;;;;;5.85;2.00;;;;;;;;;;5032274;28;20040;-84
2022/02/23 14:31:22;;;;;;;8.55;2.05;;;;;;;;;;5047532;28;20622;-82
2022/02/23 14:33:48;;;;;;;5.75;1.90;;;;;;;;;;5030933;28;20037;-82
2022/02/23 14:36:14;;;;;;;8.02;2.13;;;;;;;;;;5024497;28;20029;-82
2022/02/23 14:38:40;;;;;;;9.25;2.00;;;;;;;;;;5022404;28;20076;-81